• Join FlightAware (Why Join?)
  • Login
  • US Flag 
09:26AM EDT


 

Airport Tracker/Info


-or-


 

Live Flight TrackerFlight Track Log ✈ N789EX ✈ 23-Oct-2013 ✈ KBFI - KBFI

Flight Track Log - Related Links

Times and Time Zones

All times are in EDT time to prevent confusion due to time zone crossing. See the N789EX flight status page for this flight to view local times or setup timezone preferences in your user account.

Time Position Orientation Groundspeed Altitude Reporting Facility
EDT Latitude Longitude Course Direction KTS MPH feet Rate Location/Type
12:32PM 47.4710 -122.2500 148° Southeast 231 266 2,700  Level FlightAware
12:33PM 47.4390 -122.2190 147° Southeast 242 278 3,000 3,000 Climbing FlightAware
12:33PM 47.4800 -122.1640 42° Northeast 253 291 6,500 4,440 Climbing FlightAware
12:34PM 47.5060 -122.1660 357° North 255 293 7,700 3,480 Climbing FlightAware
12:34PM 47.5640 -122.1710 357° North 268 308 10,500 3,480 Climbing FlightAware
12:35PM 47.6190 -122.1740 358° North 278 320 12,800 3,060 Climbing FlightAware
12:36PM 47.6670 -122.1790 356° North 289 333 14,600 1,560 Climbing FlightAware
12:36PM 47.7240 -122.1830 357° North 302 348 14,900 180 Climbing FlightAware
12:37PM 47.7740 -122.1870 357° North 298 343 14,900  Level FlightAware
12:38PM 47.8240 -122.1920 356° North 297 342 14,900  Level FlightAware
12:38PM 47.8790 -122.2010 354° North 299 344 14,900  Level FlightAware
12:39PM 47.9210 -122.2140 348° North 302 348 14,900  Level FlightAware
12:39PM 47.9700 -122.2260 351° North 356 410 14,900  Level FlightAware
12:40PM 48.0760 -122.1700 19° North 376 433 14,900  Level FlightAware
12:41PM 48.1090 -122.1310 38° Northeast 371 427 14,900  Level FlightAware
12:41PM 48.1200 -122.0790 72° East 371 427 14,900  Level FlightAware
12:42PM 48.0650 -121.9910 133° Southeast 375 432 14,900  Level FlightAware
12:43PM 48.0110 -122.0320 207° Southwest 340 391 14,900  Level FlightAware
12:43PM 48.0050 -122.0680 256° West 337 388 14,900  Level FlightAware
12:44PM 48.0540 -122.1530 311° West 379 436 14,900  Level FlightAware
12:44PM 48.1160 -122.2000 333° Northwest 375 432 14,900  Level FlightAware
12:45PM 48.1710 -122.1800 14° North 371 427 14,900  Level FlightAware
12:45PM 48.1910 -122.1140 66° East 374 430 14,900  Level FlightAware
12:46PM 48.1560 -122.0300 122° Southeast 376 433 14,900  Level FlightAware
12:47PM 48.0940 -122.0390 186° South 371 427 14,900  Level FlightAware
12:47PM 48.0690 -122.1070 241° Southwest 378 435 14,900  Level FlightAware
12:48PM 48.1020 -122.1950 299° West 376 433 14,900  Level FlightAware
12:49PM 48.1690 -122.1840 North 374 430 14,900  Level FlightAware
12:49PM 48.1900 -122.1210 63° Northeast 373 429 14,900  Level FlightAware
12:50PM 48.1780 -121.9930 98° East 375 432 14,900  Level FlightAware
12:51PM 48.1640 -121.8820 101° East 375 432 14,900  Level FlightAware
12:51PM 48.1500 -121.7740 101° East 373 429 14,900  Level FlightAware
12:52PM 48.1380 -121.6770 100° East 370 426 14,900  Level FlightAware
12:53PM 48.1240 -121.5680 101° East 372 428 14,900 60 Level FlightAware
12:53PM 48.1100 -121.4500 100° East 374 430 15,000  Climbing FlightAware
12:54PM 48.0910 -121.2920 100° East 418 481 14,900 -60 Descending FlightAware
12:55PM 48.0850 -121.1710 94° East 440 506 14,900  Level FlightAware
12:56PM 48.0790 -121.0570 94° East 444 511 14,900  Level FlightAware
12:56PM 48.0730 -120.9520 95° East 444 511 14,900  Level FlightAware
12:57PM 48.0670 -120.8280 94° East 445 512 14,900 60 Level FlightAware
12:58PM 48.0620 -120.7000 93° East 445 512 15,000  Climbing FlightAware
12:58PM 48.0580 -120.6090 94° East 441 507 14,900 -120 Descending FlightAware
12:59PM 48.0520 -120.4780 94° East 438 504 14,900 -120 Level FlightAware
01:00PM 48.0460 -120.3570 94° East 438 504 14,800 -120 Descending FlightAware
01:00PM 48.0410 -120.2800 96° East 453 521 14,800  Level FlightAware
01:01PM 48.0350 -120.1800 95° East 453 521 14,800  Level FlightAware
01:01PM 48.0290 -120.0840 95° East 453 521 14,800  Level FlightAware
01:02PM 48.0240 -119.9860 94° East 453 521 14,800  Level FlightAware
01:03PM 48.0136 -119.7042 94° East 455 524 14,900  Climbing Seattle Center
01:04PM 48.0075 -119.5153 93° East 456 525 14,900  Level Seattle Center
01:05PM 47.9942 -119.3214 96° East 471 542 14,900  Level Seattle Center
01:06PM 47.9756 -119.0919 97° East 465 535 15,000  Climbing Seattle Center
01:07PM 47.9553 -118.9008 99° East 467 537 15,000  Level Seattle Center
01:08PM 47.9336 -118.7039 99° East 481 554 15,000  Level Seattle Center
01:09PM 47.9106 -118.5067 100° East 485 558 15,100  Climbing Seattle Center
01:10PM 47.8889 -118.3092 99° East 484 557 15,100 -120 Level Seattle Center
01:11PM 47.8703 -118.1108 98° East 485 558 14,900 -60 Descending Seattle Center
01:12PM 47.8528 -117.9103 97° East 488 562 15,000 180 Climbing Seattle Center
01:13PM 47.8392 -117.7083 96° East 489 563 15,300  Climbing Seattle Center
01:14PM 47.8211 -117.5097 98° East 484 557 15,000 -120 Descending Seattle Center
01:15PM 47.8067 -117.2825 95° East 485 558 15,100  Climbing Seattle Center
01:16PM 47.7939 -117.0861 95° East 477 549 15,000  Descending Seattle Center
01:17PM 47.7403 -116.9342 118° Southeast 445 512 15,100  Climbing Seattle Center
01:19PM 47.6325 -116.9847 198° South 441 507 15,000 -60 Descending Seattle Center
01:20PM 47.6408 -117.1542 274° West 433 498 15,000 -60 Level Seattle Center
01:21PM 47.6867 -117.3261 292° West 432 497 14,900 -60 Descending Seattle Center
01:22PM 47.7311 -117.4953 291° West 431 496 14,900  Level Seattle Center
01:23PM 47.7719 -117.6578 291° West 434 499 14,900  Level Seattle Center
01:24PM 47.8075 -117.8269 287° West 431 496 14,900  Level Seattle Center
01:25PM 47.8408 -118.0053 286° West 449 517 14,900 -60 Level Seattle Center
01:26PM 47.8697 -118.2006 283° West 483 556 14,800  Descending Seattle Center
01:27PM 47.8978 -118.3978 282° West 488 562 14,900  Climbing Seattle Center
01:28PM 47.9236 -118.5950 281° West 487 560 14,800 -60 Descending Seattle Center
01:29PM 47.9469 -118.7964 280° West 494 568 14,800 -60 Level Seattle Center
01:30PM 47.9672 -119.0017 278° West 502 578 14,700 -120 Descending Seattle Center
01:31PM 47.9972 -119.2014 283° West 497 572 14,600 120 Descending Seattle Center
01:32PM 47.9850 -119.4053 265° West 506 582 15,000 180 Climbing Seattle Center
01:33PM 47.9181 -119.5917 242° Southwest 509 586 15,000 -60 Level Seattle Center
01:38PM 47.3590 -119.7610 242° Southwest 476 548 14,800 -60 Descending FlightAware
01:38PM 47.3090 -119.7020 141° Southeast 442 509 14,800  Level FlightAware
01:39PM 47.2500 -119.6070 132° Southeast 395 455 14,800  Level FlightAware
01:40PM 47.2140 -119.5480 132° Southeast 376 433 14,800  Level FlightAware
01:40PM 47.1740 -119.4820 132° Southeast 374 430 14,800  Level FlightAware
01:41PM 47.1220 -119.3950 131° Southeast 374 430 14,800  Level FlightAware
01:42PM 47.0880 -119.3360 130° Southeast 374 430 14,800  Level FlightAware
01:42PM 47.0650 -119.2970 131° Southeast 374 430 14,800 2,820 Level FlightAware
01:43PM 47.1050 -119.0780 75° East 395 455 19,000 2,700 Climbing FlightAware
01:44PM 47.1170 -119.0050 76° East 399 459 19,200 2,700 Climbing FlightAware
01:45PM 47.1500 -118.7960 77° East 421 484 23,700 3,240 Climbing FlightAware
01:45PM 47.1660 -118.6910 77° East 433 498 25,100 1,140 Climbing FlightAware
01:46PM 47.1840 -118.5760 77° East 435 501 25,300 2,040 Climbing FlightAware
01:47PM 47.1980 -118.4860 77° East 449 517 27,600 2,820 Climbing FlightAware
01:48PM 47.2130 -118.3920 77° East 456 525 29,600 1,020 Climbing FlightAware
01:48PM 47.2340 -118.2670 76° East 456 525 29,600  Level FlightAware
01:49PM 47.2500 -118.1720 76° East 456 525 29,600  Level FlightAware
01:50PM 47.2660 -118.0770 76° East 456 525 29,600  Level FlightAware
01:50PM 47.2820 -117.9850 76° East 456 525 29,600  Level FlightAware
01:51PM 47.3030 -117.8590 76° East 456 525 29,600  Level FlightAware
01:52PM 47.3140 -117.7950 76° East 456 525 29,600 2,880 Level FlightAware
01:53PM 47.3953 -117.3058 76° East 492 566 35,000 2,160 Climbing Seattle Center
01:54PM 47.4300 -117.1053 76° East 512 589 35,000  Level Seattle Center
01:55PM 47.4642 -116.9092 75° East 511 588 35,000  Level Seattle Center
01:56PM 47.5033 -116.6917 75° East 470 541 35,000  Level Seattle Center
01:57PM 47.5344 -116.5142 75° East 454 522 35,000  Level Seattle Center
01:58PM 47.5647 -116.3461 75° East 432 497 35,100  Climbing Seattle Center
01:59PM 47.5908 -116.1950 76° East 390 449 35,100  Level Seattle Center
02:00PM 47.6169 -116.0483 75° East 374 430 35,100  Level Seattle Center
02:01PM 47.5592 -115.9414 129° Southeast 377 434 35,100  Level Seattle Center
02:02PM 47.4944 -116.0383 225° Southwest 368 423 35,100  Level Seattle Center
02:03PM 47.5292 -116.1744 291° West 356 410 35,100  Level Seattle Center
02:04PM 47.5625 -116.3000 292° West 336 387 35,100 -300 Level Seattle Center
02:05PM 47.5964 -116.4275 292° West 333 383 34,600 -600 Descending Seattle Center
02:06PM 47.6364 -116.5758 292° West 376 433 33,900 -300 Descending Seattle Center
02:07PM 47.6769 -116.7431 290° West 423 487 34,000  Climbing Seattle Center
02:08PM 47.6739 -116.9650 269° West 463 533 34,000  Level Seattle Center
02:09PM 47.6550 -117.1500 261° West 472 543 34,000  Level Seattle Center
02:15PM 47.4650 -118.3140 261° West 499 574 34,000  Level FlightAware
02:15PM 47.4500 -118.3980 255° West 500 575 34,000  Level FlightAware
02:16PM 47.4340 -118.5110 258° West 501 577 34,000  Level FlightAware
02:17PM 47.4340 -118.6440 270° West 503 579 34,000  Level FlightAware
02:17PM 47.4360 -118.7550 272° West 504 580 34,000  Level FlightAware
02:18PM 47.4450 -118.8520 278° West 504 580 34,000 -120 Level FlightAware
02:18PM 47.4840 -118.9810 294° West 506 582 33,900 -720 Descending FlightAware
02:19PM 47.5220 -119.0930 297° West 505 581 33,100 -1,440 Descending FlightAware
02:20PM 47.5620 -119.2140 296° West 500 575 32,100 -1,500 Descending FlightAware
02:20PM 47.5960 -119.3150 297° West 509 586 31,300 -1,440 Descending FlightAware
02:21PM 47.6340 -119.4290 296° West 521 600 30,500 -660 Descending FlightAware
02:21PM 47.6770 -119.5570 297° West 534 615 30,500  Level FlightAware
02:22PM 47.7160 -119.6810 295° West 537 618 30,500  Level FlightAware
02:23PM 47.7500 -119.7950 294° West 538 619 30,500 60 Level FlightAware
02:23PM 47.7830 -119.9150 292° West 536 617 30,600  Climbing FlightAware
02:24PM 47.8420 -120.1530 290° West 542 624 30,500 -180 Descending FlightAware
02:25PM 47.8980 -120.3900 289° West 546 628 30,200 -480 Descending FlightAware
02:26PM 47.9240 -120.5100 288° West 550 633 29,700 -840 Descending FlightAware
02:27PM 47.9730 -120.7670 286° West 554 638 28,800 -840 Descending FlightAware
02:28PM 47.9900 -120.8870 282° West 551 634 28,300 780 Descending FlightAware
02:28PM 48.0180 -121.0130 288° West 533 613 29,700 1,860 Climbing FlightAware
02:29PM 48.0580 -121.1640 292° West 534 615 30,800 1,020 Climbing FlightAware
02:30PM 48.0870 -121.2810 290° West 537 618 31,100 -240 Climbing FlightAware
02:31PM 48.1180 -121.4940 282° West 541 623 30,500 420 Descending FlightAware
02:31PM 48.1290 -121.6860 275° West 527 606 31,900 1,260 Climbing FlightAware
02:32PM 48.1520 -121.8150 285° West 532 612 32,400 360 Climbing FlightAware
02:33PM 48.2300 -121.8940 326° Northwest 544 626 32,400 60 Level FlightAware
02:33PM 48.3080 -121.8820 North 542 624 32,500  Climbing FlightAware
02:34PM 48.3480 -121.8100 50° Northeast 528 608 32,400  Descending FlightAware
02:34PM 48.3550 -121.7140 84° East 524 603 32,500  Climbing FlightAware
02:35PM 48.3390 -121.5580 99° East 525 604 32,400 -1,080 Descending FlightAware
02:36PM 48.3030 -121.3990 109° East 538 619 31,000 -2,820 Descending FlightAware
02:36PM 48.2570 -121.2060 110° East 549 632 27,700 -1,620 Descending FlightAware
02:37PM 48.2210 -121.0580 110° East 519 597 28,500 1,920 Climbing FlightAware
02:38PM 48.1720 -120.8670 111° Southeast 508 585 31,000 1,680 Climbing FlightAware
02:39PM 48.1440 -120.7640 112° Southeast 523 602 31,100 -1,080 Climbing FlightAware
02:39PM 48.1160 -120.6560 111° Southeast 541 623 29,900 -1,200 Descending FlightAware
02:40PM 48.0540 -120.4230 112° Southeast 524 603 29,200 180 Descending FlightAware
02:41PM 48.0410 -120.3340 102° East 519 597 30,200 2,340 Climbing FlightAware
02:41PM 48.0360 -120.1970 93° East 512 589 31,700 2,340 Climbing FlightAware
02:42PM 48.0360 -120.0930 90° East 507 583 32,900 1,200 Climbing FlightAware
02:42PM 48.0380 -119.9780 88° East 518 596 33,000 -1,800 Climbing FlightAware
02:43PM 48.0390 -119.8630 89° East 548 631 31,000 -4,080 Descending FlightAware
02:43PM 48.0400 -119.7490 89° East 549 632 28,800 -1,140 Descending FlightAware
02:44PM 48.0300 -119.6240 97° East 530 610 29,800 1,620 Climbing FlightAware
02:45PM 48.0170 -119.5270 101° East 525 604 30,500 1,560 Climbing FlightAware
02:45PM 48.0010 -119.4010 101° East 522 601 31,500 60 Climbing FlightAware
02:46PM 47.9830 -119.2610 101° East 544 626 30,600 -1,740 Descending FlightAware
02:46PM 47.9640 -119.0990 100° East 536 617 29,200 240 Descending FlightAware
02:48PM 47.9420 -118.8820 99° East 515 593 31,100 2,100 Climbing FlightAware
02:48PM 47.9270 -118.7270 98° East 517 595 33,000 1,380 Climbing FlightAware
02:49PM 47.9160 -118.5950 97° East 522 601 33,000  Level FlightAware
02:50PM 47.9070 -118.4860 97° East 522 601 33,000  Level FlightAware
02:50PM 47.9010 -118.4130 97° East 522 601 33,000  Level FlightAware
02:51PM 47.8880 -118.2640 97° East 522 601 33,000  Level FlightAware
02:51PM 47.8790 -118.1550 97° East 522 601 33,000  Level FlightAware
02:52PM 47.8640 -117.9720 97° East 522 601 33,000  Level FlightAware
02:53PM 47.8490 -117.7900 97° East 522 601 33,000  Level FlightAware
02:54PM 47.8340 -117.6080 97° East 522 601 33,000  Level FlightAware
02:55PM 47.8190 -117.4230 97° East 522 601 33,000  Level FlightAware
02:56PM 47.8100 -117.3140 97° East 522 601 33,000  Level FlightAware
02:57PM 47.7950 -117.1320 97° East 522 601 33,000  Level FlightAware
02:57PM 47.7880 -117.0530 97° East 522 601 33,000  Level FlightAware
02:58PM 47.7790 -116.9440 97° East 522 601 33,000  Level FlightAware
02:58PM 47.7730 -116.8710 97° East 522 601 33,000 -240 Level FlightAware
03:03PM 47.9470 -119.0720 278° West 518 596 31,800 -60 Descending FlightAware
03:04PM 47.9590 -119.2250 277° West 520 598 32,900 -2,400 Climbing FlightAware
03:04PM 47.9700 -119.3680 277° West 554 638 28,500 -6,720 Descending FlightAware
03:05PM 47.9740 -119.4180 277° West 561 646 27,100 -1,380 Descending FlightAware
03:05PM 47.9840 -119.6000 275° West 489 563 27,100 -420 Level FlightAware
03:06PM 47.9890 -119.6980 274° West 462 532 26,600 -1,800 Descending FlightAware
03:07PM 47.9950 -119.8140 274° West 462 532 25,100 -1,380 Descending FlightAware
03:07PM 48.0010 -119.9210 275° West 442 509 25,000 -420 Descending FlightAware
03:08PM 48.0430 -120.0090 306° West 435 501 24,600 -900 Descending FlightAware
03:08PM 48.0810 -120.0240 345° North 433 498 24,200 -540 Descending FlightAware
03:09PM 48.1600 -119.9320 38° Northeast 454 522 24,000 -180 Descending FlightAware
03:09PM 48.1640 -119.8940 81° East 457 526 24,000  Level FlightAware
03:10PM 48.1080 -119.7690 124° Southeast 458 527 24,000 -300 Level FlightAware
03:11PM 48.0460 -119.7290 157° South 451 519 23,600 -360 Descending FlightAware
03:11PM 47.9830 -119.6940 160° South 451 519 23,600  Level FlightAware
03:12PM 47.8780 -119.6370 160° South 451 519 23,600  Level FlightAware
03:13PM 47.8360 -119.6150 161° South 451 519 23,600  Level FlightAware
03:13PM 47.7960 -119.5930 160° South 451 519 23,600  Level FlightAware
03:14PM 47.6760 -119.5280 160° South 451 519 23,600  Level FlightAware
03:14PM 47.6560 -119.5170 160° South 451 519 23,600 -12,780 Level FlightAware
03:15PM 47.5419 -119.4758 160° South 363 418 10,200 -8,040 Descending Seattle Center
03:16PM 47.4675 -119.4392 162° South 283 326 8,600 -1,080 Descending Seattle Center
03:17PM 47.3983 -119.4044 161° South 265 305 8,100 -1,380 Descending Seattle Center
03:18PM 47.3344 -119.3778 164° South 226 260 5,900 -2,580 Descending Seattle Center
03:19PM 47.2811 -119.3536 163° South 206 237 2,900 -1,980 Descending Seattle Center
03:20PM 47.2350 -119.3311 162° South 180 207 1,900 -840 Descending Seattle Center
03:21PM 47.1981 -119.3131 162° South 158 182 1,200 -720 Descending Seattle Center
03:23PM 47.2089 -119.3331 308° West  Level FlightAware Approximate
03:30PM 47.2000 -119.3167 172° South  Level FlightAware Approximate
03:31PM 47.2030 -119.3406 172° South  Level Estimated
03:32PM 47.2000 -119.3167 172° South  Level FlightAware Approximate
03:33PM 47.2030 -119.3406 172° South  Level Estimated
03:34PM 47.2000 -119.3167 172° South  Level FlightAware Approximate
03:35PM 47.2030 -119.3406 172° South  Level Estimated
03:36PM 47.2000 -119.3167 172° South  Level FlightAware Approximate
03:37PM 47.2030 -119.3406 172° South  Level Estimated